Wednesday, January 17, 2018, 9:44 AM EST
Back to Local

KPWM, Portland International Jetport

Location: Portland, ME, United States Lat: 43.65
Local Time: 9:44 AM EST (14:44 GMT) Lon: -70.3
Time Zone: US/Eastern Elev: 75 ft

Show me the last for .
Show Decoded

2018-01-17 09:20 METAR KPWM 171420Z 06007KT 010V110 1 1/2SM -SN BR SCT012 BKN022 OVC033 M03/M04
                 A3033 RMK AO2 P0001 T10331039 =
2018-01-17 08:51 METAR KPWM 171351Z VRB04KT 1/2SM SN FZFG OVC011 M03/M04 A3034 RMK AO2 SLP276
                 P0004 T10331039 =
2018-01-17 07:51 METAR KPWM 171251Z VRB04KT 1/2SM SN FZFG OVC008 M04/M04 A3035 RMK AO2 SLP277
                 P0003 T10391039 =
2018-01-17 06:51 METAR KPWM 171151Z VRB04KT 1 1/4SM -SN BR OVC006 M03/M04 A3035 RMK AO2 SLP279
                 P0003 60017 70022 T10331039 11028 21033 58013 =
2018-01-17 06:21 METAR KPWM 171121Z VRB04KT 1 1/2SM -SN BR BKN007 OVC014 M03/M04 A3036 RMK AO2
                 P0002 T10331039 =
2018-01-17 06:02 METAR KPWM 171102Z VRB04KT 1 1/2SM -SN BR SCT007 OVC015 M03/M04 A3037 RMK AO2
                 P0001 T10331039 =
2018-01-17 05:51 METAR KPWM 171051Z VRB04KT 1 1/2SM -SN BR OVC015 M03/M04 A3037 RMK AO2 SLP284
                 P0002 T10331039 =
2018-01-17 05:40 METAR KPWM 171040Z VRB03KT 1 1/2SM -SN BR OVC017 M03/M04 A3037 RMK AO2 P0002
                 T10331039 =
2018-01-17 04:51 METAR KPWM 170951Z 03003KT 1SM -SN BR VV015 M03/M04 A3038 RMK AO2 SLP289 P0003
                 T10331039 =
2018-01-17 04:43 METAR KPWM 170943Z AUTO 02003KT 1 1/4SM -SN BR OVC015 M03/M04 A3038 RMK AO2
                 P0003 T10331039 =
2018-01-17 04:15 METAR KPWM 170915Z AUTO 04004KT 1 1/4SM -SN BR OVC011 M03/M04 A3039 RMK AO2
                 P0002 T10331039 =
2018-01-17 04:02 METAR KPWM 170902Z AUTO 05003KT 1 1/2SM -SN BR OVC011 M03/M04 A3039 RMK AO2
                 P0001 T10331039 =
2018-01-17 03:51 METAR KPWM 170851Z AUTO 04003KT 1 1/4SM -SN BR OVC011 M03/M04 A3039 RMK AO2
                 SLP292 P0002 60009 T10331039 58003 =
2018-01-17 03:24 METAR KPWM 170824Z AUTO 02003KT 1 1/4SM -SN BR BKN010 OVC017 M03/M04 A3040 RMK
                 AO2 P0001 T10331039 =
2018-01-17 03:13 METAR KPWM 170813Z AUTO VRB04KT 1 1/2SM -SN BR BKN010 OVC017 M03/M04 A3041 RMK
                 AO2 P0001 T10331039 =
2018-01-17 03:02 METAR KPWM 170802Z AUTO 02003KT 1 1/2SM -SN BR BKN009 OVC017 M03/M03 A3040 RMK
                 AO2 P0001 T10331033 =
2018-01-17 02:51 METAR KPWM 170751Z AUTO 05003KT 1 1/4SM -SN BR BKN010 OVC016 M03/M03 A3040 RMK
                 AO2 SLP295 P0004 T10331033 =
2018-01-17 01:51 METAR KPWM 170651Z AUTO 00000KT 1SM -SN BR VV012 M03/M04 A3041 RMK AO2 SLP298
                 P0003 T10281039 =
2018-01-17 01:41 METAR KPWM 170641Z AUTO 00000KT 1SM -SN BR FEW009 OVC014 M03/M04 A3041 RMK AO2
                 P0003 T10281039 =
2018-01-17 01:12 METAR KPWM 170612Z AUTO 00000KT 1 1/4SM -SN BR OVC018 M03/M03 A3040 RMK AO2
                 P0001 T10281033 =
2018-01-17 00:51 METAR KPWM 170551Z AUTO VRB03KT 1 1/2SM -SN BR OVC020 M03/M03 A3040 RMK AO2
                 SLP295 P0002 60005 T10281033 11028 21033 58019 =
2018-01-17 00:28 METAR KPWM 170528Z AUTO VRB04KT 1 1/2SM -SN BR OVC018 M03/M04 A3041 RMK AO2
                 P0002 T10331039 =
2018-01-16 23:58 METAR KPWM 170458Z AUTO VRB04KT 1 1/4SM -SN BR OVC020 M03/M04 A3042 RMK AO2
                 P0000 T10331039 =
2018-01-16 23:51 METAR KPWM 170451Z VRB03KT 1 1/2SM -SN BR OVC022 M03/M04 A3042 RMK AO2 SLP303
                 LAST P0002 T10281039 410281100 =
2018-01-16 23:18 METAR KPWM 170418Z VRB03KT 1 1/2SM -SN BR OVC027 M03/M04 A3044 RMK AO2 P0001
                 T10331039 =
2018-01-16 23:09 METAR KPWM 170409Z VRB03KT 2SM -SN BR OVC027 M03/M04 A3044 RMK AO2 P0001
                 T10331039 =
2018-01-16 22:51 METAR KPWM 170351Z VRB03KT 2SM -SN BR OVC037 M03/M04 A3044 RMK AO2 SLP309 P0000
                 T10331039 =
2018-01-16 22:21 METAR KPWM 170321Z VRB04KT 2 1/2SM -SN BR OVC035 M03/M04 A3044 RMK AO2 P0000
                 T10331044 =
2018-01-16 22:13 METAR KPWM 170313Z VRB04KT 2SM -SN BR OVC029 M03/M04 A3045 RMK AO2 P0000
                 T10331044 =
2018-01-16 21:51 METAR KPWM 170251Z 00000KT 2 1/2SM -SN BR OVC035 M03/M04 A3046 RMK AO2 SLP314
                 P0001 60001 T10281039 50002 =
2018-01-16 21:46 METAR KPWM 170246Z 00000KT 2SM -SN BR OVC036 M03/M04 A3046 RMK AO2 P0000 =
2018-01-16 21:17 METAR KPWM 170217Z 00000KT 3SM -SN BR OVC036 M03/M05 A3046 RMK AO2 P0000
                 T10331050 =
2018-01-16 21:05 METAR KPWM 170205Z VRB03KT 2 1/2SM -SN BR OVC036 M03/M05 A3046 RMK AO2 P0000
                 T10281050 =
2018-01-16 20:51 METAR KPWM 170151Z 00000KT 4SM -SN OVC038 M03/M06 A3046 RMK AO2 SNB41 SLP316
                 P0000 T10281056 =
2018-01-16 19:51 METAR KPWM 170051Z 00000KT 10SM BKN055 OVC070 M03/M06 A3045 RMK AO2 SLP312
                 T10281056 =
2018-01-16 18:51 METAR KPWM 162351Z 00000KT 10SM OVC080 M03/M07 A3046 RMK AO2 SLP317 T10331067
                 11028 21044 53001 =
2018-01-16 17:51 METAR KPWM 162251Z 00000KT 10SM BKN110 M04/M07 A3046 RMK AO2 SLP315 T10391072 =
2018-01-16 16:51 METAR KPWM 162151Z 00000KT 10SM SCT110 M03/M07 A3046 RMK AO2 SLP314 T10281072 =
2018-01-16 15:51 METAR KPWM 162051Z 19003KT 10SM FEW030 SCT200 M03/M07 A3046 RMK AO2 SLP316
                 T10281072 56003 =
2018-01-16 14:51 METAR KPWM 161951Z VRB03KT 10SM FEW035 SCT200 M03/M09 A3046 RMK AO2 SLP316
                 T10331089 =
2018-01-16 13:51 METAR KPWM 161851Z VRB03KT 10SM SCT034 SCT250 M04/M09 A3046 RMK AO2 SLP316
                 T10391094 =
2018-01-16 13:18 METAR KPWM 161818Z 00000KT 10SM OVC034 M04/M09 A3046 RMK AO2 T10391094 =
2018-01-16 12:51 METAR KPWM 161751Z VRB03KT 10SM BKN027 OVC034 M04/M09 A3047 RMK AO2 SLP318
                 T10441094 11039 21100 58023 =
2018-01-16 12:18 METAR KPWM 161718Z 00000KT 10SM OVC028 M05/M09 A3048 RMK AO2 T10501094 =
2018-01-16 11:51 METAR KPWM 161651Z 00000KT 10SM OVC032 M05/M09 A3049 RMK AO2 SLP327 T10501094 =
2018-01-16 10:51 METAR KPWM 161551Z VRB04KT 10SM FEW250 M06/M11 A3053 RMK AO2 SLP341 T10611106 =
2018-01-16 09:51 METAR KPWM 161451Z 00000KT 10SM FEW250 M07/M12 A3053 RMK AO2 SLP341 T10721117
                 50001 =

Support USWX by starting your Amazon purchase here.